createdAt,value
2023-02-19T00:02:17.071Z,5.93
2023-02-19T00:04:59.884Z,17.92
2023-02-19T00:07:44.140Z,4.88
2023-02-19T00:10:26.958Z,4.30
2023-02-19T00:13:10.069Z,5.35
2023-02-19T00:15:52.894Z,5.30
2023-02-19T00:18:36.063Z,9.43
2023-02-19T00:21:19.371Z,6.80
2023-02-19T00:24:06.595Z,4.63
2023-02-19T00:26:49.437Z,4.70
2023-02-19T00:29:32.432Z,4.57
2023-02-19T00:32:15.221Z,13.82
2023-02-19T00:34:58.054Z,4.63
2023-02-19T00:37:40.882Z,4.93
2023-02-19T00:40:26.080Z,6.53
2023-02-19T00:43:09.629Z,4.82
2023-02-19T00:45:52.448Z,5.55
2023-02-19T00:48:35.390Z,5.70
2023-02-19T00:51:18.193Z,5.78
2023-02-19T00:54:01.804Z,6.70
2023-02-19T00:56:46.721Z,8.57
2023-02-19T00:59:29.488Z,7.38
2023-02-19T01:02:12.306Z,8.20
2023-02-19T01:04:55.094Z,6.75
2023-02-19T01:07:38.839Z,6.05
2023-02-19T01:10:21.619Z,7.37
2023-02-19T01:13:05.857Z,6.45
2023-02-19T01:15:48.694Z,12.55
2023-02-19T01:18:31.884Z,6.45
2023-02-19T01:21:16.566Z,6.68
2023-02-19T01:26:42.561Z,6.22
2023-02-19T01:29:26.901Z,7.07
2023-02-19T01:32:09.949Z,7.13
2023-02-19T01:34:52.863Z,5.78
2023-02-19T01:37:35.725Z,7.97
2023-02-19T01:40:18.708Z,4.97
2023-02-19T01:43:04.628Z,6.07
2023-02-19T01:45:48.821Z,5.13
2023-02-19T01:48:34.712Z,5.30
2023-02-19T01:51:20.750Z,4.80
2023-02-19T01:54:07.706Z,4.80
2023-02-19T01:56:51.160Z,4.45
2023-02-19T01:59:35.144Z,3.88
2023-02-19T02:02:19.419Z,4.45
2023-02-19T02:05:03.958Z,6.20
2023-02-19T02:08:04.198Z,3.63
2023-02-19T02:10:47.137Z,4.72
2023-02-19T02:13:30.726Z,8.63
2023-02-19T02:16:23.873Z,10.45
2023-02-19T02:19:23.568Z,4.63
2023-02-19T02:22:15.672Z,3.55
2023-02-19T02:25:30.211Z,3.28
2023-02-19T02:28:29.561Z,10.48
2023-02-19T02:31:18.057Z,2.00
2023-02-19T02:34:05.836Z,7.13
2023-02-19T02:36:53.808Z,2.17
2023-02-19T02:39:38.907Z,4.43
2023-02-19T02:42:30.770Z,3.63
2023-02-19T02:45:37.651Z,2.65
2023-02-19T02:48:36.890Z,1.40
2023-02-19T02:51:24.259Z,1.50
2023-02-19T02:54:37.357Z,1.23
2023-02-19T02:57:25.261Z,0.90
2023-02-19T03:00:13.189Z,3.45
2023-02-19T03:02:56.657Z,1.10
2023-02-19T03:05:53.357Z,2.05
2023-02-19T03:08:41.584Z,7.30
2023-02-19T03:11:42.332Z,1.25
2023-02-19T03:14:58.199Z,0.90
2023-02-19T03:18:05.394Z,1.13
2023-02-19T03:20:54.307Z,0.60
2023-02-19T03:23:55.706Z,0.85
2023-02-19T03:26:42.120Z,0.82
2023-02-19T03:29:27.786Z,0.63
2023-02-19T03:32:23.088Z,0.40
2023-02-19T03:35:10.584Z,0.70
2023-02-19T03:38:02.420Z,0.20
2023-02-19T03:40:53.908Z,0.30
2023-02-19T03:43:42.335Z,0.20
2023-02-19T03:46:34.173Z,0.55
2023-02-19T03:49:25.231Z,0.40
2023-02-19T03:52:15.050Z,0.17
2023-02-19T03:55:06.900Z,0.55
2023-02-19T03:57:55.816Z,1.55
2023-02-19T04:00:44.460Z,0.20
2023-02-19T04:03:33.659Z,3.00
2023-02-19T04:06:21.929Z,0.85
2023-02-19T04:09:09.765Z,2.70
2023-02-19T04:11:57.361Z,1.35
2023-02-19T04:14:45.637Z,0.20
2023-02-19T04:17:35.320Z,0.85
2023-02-19T04:20:21.173Z,25.83
2023-02-19T04:23:04.456Z,2.25
2023-02-19T04:25:51.197Z,0.60
2023-02-19T04:28:35.793Z,2.25
2023-02-19T04:34:01.687Z,13.35
2023-02-19T04:36:44.458Z,4.10
2023-02-19T04:39:27.318Z,0.38
2023-02-19T04:42:11.665Z,0.57
2023-02-19T04:44:55.805Z,0.45
2023-02-19T04:47:38.626Z,0.57
2023-02-19T04:50:22.858Z,1.25
2023-02-19T04:53:05.795Z,0.60
2023-02-19T04:55:48.908Z,1.52
2023-02-19T04:58:32.404Z,0.40
2023-02-19T05:01:16.696Z,1.08
2023-02-19T05:04:00.126Z,0.68
2023-02-19T05:06:42.891Z,0.82
2023-02-19T05:09:25.799Z,0.45
2023-02-19T05:12:08.647Z,1.55
2023-02-19T05:14:51.466Z,0.45
2023-02-19T05:17:35.951Z,0.63
2023-02-19T05:20:18.876Z,0.93
2023-02-19T05:23:01.690Z,1.05
2023-02-19T05:25:44.501Z,0.52
2023-02-19T05:28:29.515Z,2.20
2023-02-19T05:31:13.770Z,0.47
2023-02-19T05:33:58.390Z,0.60
2023-02-19T05:36:41.610Z,2.58
2023-02-19T05:39:24.478Z,0.73
2023-02-19T05:42:07.301Z,6.43
2023-02-19T05:44:50.116Z,11.23
2023-02-19T05:47:32.972Z,0.60
2023-02-19T05:50:17.201Z,22.08
2023-02-19T05:53:01.020Z,7.10
2023-02-19T05:55:43.802Z,2.13
2023-02-19T05:58:27.225Z,0.47
2023-02-19T06:01:16.037Z,0.30
2023-02-19T06:03:59.562Z,6.70
2023-02-19T06:06:44.128Z,0.68
2023-02-19T06:09:26.971Z,1.45
2023-02-19T06:12:09.729Z,0.47
2023-02-19T06:14:52.714Z,0.82
2023-02-19T06:17:35.904Z,0.43
2023-02-19T06:20:19.014Z,0.50
2023-02-19T06:23:03.234Z,0.40
2023-02-19T06:25:46.101Z,0.38
2023-02-19T06:28:28.892Z,0.20
2023-02-19T06:31:12.948Z,0.40
2023-02-19T06:33:56.098Z,5.53
2023-02-19T06:36:39.000Z,26.75
2023-02-19T06:39:23.220Z,17.63
2023-02-19T06:42:06.094Z,19.23
2023-02-19T06:44:48.932Z,10.48
2023-02-19T06:47:32.506Z,4.22
2023-02-19T06:50:15.285Z,5.10
2023-02-19T06:52:58.092Z,3.35
2023-02-19T06:55:42.246Z,1.52
2023-02-19T06:58:25.317Z,1.13
2023-02-19T07:01:08.200Z,0.80
2023-02-19T07:03:52.499Z,0.82
2023-02-19T07:06:36.540Z,4.95
2023-02-19T07:09:19.379Z,3.28
2023-02-19T07:12:03.580Z,3.95
2023-02-19T07:14:46.452Z,4.55
2023-02-19T07:17:29.442Z,2.05
2023-02-19T07:20:13.023Z,1.90
2023-02-19T07:22:55.760Z,1.45
2023-02-19T07:25:39.188Z,0.70
2023-02-19T07:28:23.377Z,1.42
2023-02-19T07:31:07.273Z,1.10
2023-02-19T07:33:50.861Z,1.02
2023-02-19T07:36:33.678Z,0.90
2023-02-19T07:39:16.640Z,1.20
2023-02-19T07:41:59.460Z,0.43
2023-02-19T07:44:44.399Z,0.88
2023-02-19T07:47:27.188Z,1.10
2023-02-19T07:50:11.361Z,1.83
2023-02-19T07:52:55.835Z,1.20
2023-02-19T07:55:38.665Z,1.00
2023-02-19T07:58:21.477Z,0.70
2023-02-19T08:01:11.581Z,1.30
2023-02-19T08:03:53.573Z,2.28
2023-02-19T08:06:36.357Z,1.88
2023-02-19T08:09:19.173Z,0.85
2023-02-19T08:12:19.716Z,0.80
2023-02-19T08:15:02.626Z,1.08
2023-02-19T08:17:46.760Z,1.77
2023-02-19T08:20:29.801Z,1.00
2023-02-19T08:23:13.393Z,1.35
2023-02-19T08:25:59.181Z,1.98
2023-02-19T08:28:42.058Z,1.90
2023-02-19T08:31:24.960Z,1.92
2023-02-19T08:34:09.204Z,1.95
2023-02-19T08:36:52.016Z,1.98
2023-02-19T08:39:34.828Z,1.95
2023-02-19T08:42:17.611Z,1.85
2023-02-19T08:45:00.421Z,1.42
2023-02-19T08:47:43.214Z,1.50
2023-02-19T08:50:27.791Z,1.85
2023-02-19T08:55:53.527Z,1.75
2023-02-19T08:58:37.480Z,2.20
2023-02-19T09:01:20.428Z,1.40
2023-02-19T09:04:03.249Z,1.55
2023-02-19T09:06:47.438Z,2.60
2023-02-19T09:09:30.272Z,1.67
2023-02-19T09:12:13.946Z,3.67
2023-02-19T09:14:56.746Z,2.37
2023-02-19T09:17:39.550Z,2.05
2023-02-19T09:20:22.398Z,3.00
2023-02-19T09:23:06.637Z,2.35
2023-02-19T09:25:49.480Z,2.55
2023-02-19T09:28:32.305Z,4.93
2023-02-19T09:31:17.128Z,4.72
2023-02-19T09:34:00.029Z,5.00
2023-02-19T09:36:43.078Z,3.70
2023-02-19T09:39:27.206Z,3.20
2023-02-19T09:42:15.383Z,3.40
2023-02-19T09:45:00.978Z,3.40
2023-02-19T09:47:43.896Z,2.55
2023-02-19T09:50:34.552Z,3.85
2023-02-19T09:53:21.626Z,2.00
2023-02-19T09:56:06.456Z,3.28
2023-02-19T09:58:53.155Z,3.60
2023-02-19T10:01:40.487Z,2.78
2023-02-19T10:04:23.332Z,23.38
2023-02-19T10:07:08.397Z,7.20
2023-02-19T10:09:55.778Z,3.05
2023-02-19T10:12:42.040Z,2.92
2023-02-19T10:15:30.744Z,2.90
2023-02-19T10:18:13.732Z,2.63
2023-02-19T10:20:57.618Z,2.28
2023-02-19T10:23:41.875Z,1.48
2023-02-19T10:26:24.948Z,2.00
2023-02-19T10:29:11.382Z,1.90
2023-02-19T10:32:21.196Z,2.45
2023-02-19T10:35:13.215Z,2.28
2023-02-19T10:37:56.122Z,2.40
2023-02-19T10:40:46.042Z,2.55
2023-02-19T10:43:33.810Z,3.50
2023-02-19T10:46:21.409Z,12.20
2023-02-19T10:49:07.363Z,9.20
2023-02-19T10:51:50.583Z,3.30
2023-02-19T10:54:35.479Z,7.03
2023-02-19T10:57:30.100Z,8.70
2023-02-19T11:00:24.208Z,7.03
2023-02-19T11:03:22.070Z,8.73
2023-02-19T11:06:08.253Z,12.65
2023-02-19T11:08:54.616Z,9.88
2023-02-19T11:11:39.740Z,25.23
2023-02-19T11:14:25.081Z,52.05
2023-02-19T11:17:08.241Z,17.52
2023-02-19T11:19:56.852Z,7.75
2023-02-19T11:22:42.394Z,3.15
2023-02-19T11:25:25.909Z,1.77
2023-02-19T11:28:24.748Z,1.45
2023-02-19T11:31:24.770Z,1.40
2023-02-19T11:34:35.062Z,3.05
2023-02-19T11:37:20.862Z,4.88
2023-02-19T11:40:03.722Z,5.22
2023-02-19T11:42:54.254Z,7.18
2023-02-19T11:45:44.370Z,4.03
2023-02-19T11:48:53.816Z,4.40
2023-02-19T11:52:02.779Z,3.25
2023-02-19T11:54:54.087Z,3.20
2023-02-19T11:57:44.817Z,2.80
2023-02-19T12:00:29.539Z,4.10
2023-02-19T12:03:56.677Z,2.10
2023-02-19T12:06:49.869Z,2.53
2023-02-19T12:09:47.685Z,3.80
2023-02-19T12:12:48.195Z,2.45
2023-02-19T12:15:42.144Z,5.20
2023-02-19T12:19:00.299Z,3.25
2023-02-19T12:21:54.394Z,4.20
2023-02-19T12:25:07.793Z,4.80
2023-02-19T12:28:04.514Z,2.17
2023-02-19T12:31:35.300Z,2.53
2023-02-19T12:34:32.444Z,2.13
2023-02-19T12:37:30.527Z,1.85
2023-02-19T12:40:27.404Z,2.10
2023-02-19T12:43:16.999Z,2.20
2023-02-19T12:46:04.022Z,2.35
2023-02-19T12:48:53.370Z,2.15
2023-02-19T12:51:42.584Z,2.03
2023-02-19T12:54:30.085Z,2.35
2023-02-19T12:57:17.485Z,1.58
2023-02-19T13:00:24.446Z,1.45
2023-02-19T13:03:20.918Z,1.20
2023-02-19T13:06:12.751Z,3.15
2023-02-19T13:09:06.785Z,11.77
2023-02-19T13:11:54.615Z,9.40
2023-02-19T13:14:41.267Z,10.35
2023-02-19T13:17:30.545Z,5.22
2023-02-19T13:20:21.460Z,6.47
2023-02-19T13:23:23.720Z,3.58
2023-02-19T13:26:34.288Z,4.18
2023-02-19T13:29:32.809Z,1.95
2023-02-19T13:32:39.400Z,2.38
2023-02-19T13:35:32.072Z,3.50
2023-02-19T13:38:16.038Z,1.80
2023-02-19T13:41:00.804Z,1.92
2023-02-19T13:43:46.865Z,2.35
2023-02-19T13:46:39.082Z,3.47
2023-02-19T13:49:50.607Z,2.25
2023-02-19T13:52:43.860Z,3.13
2023-02-19T13:55:51.893Z,3.28
2023-02-19T13:58:54.902Z,1.98
2023-02-19T14:02:17.753Z,3.55
2023-02-19T14:05:05.574Z,2.22
2023-02-19T14:07:57.358Z,3.72
2023-02-19T14:10:57.767Z,3.47
2023-02-19T14:14:06.384Z,2.65
2023-02-19T14:16:56.808Z,1.65
2023-02-19T14:19:52.247Z,2.45
2023-02-19T14:23:01.578Z,1.70
2023-02-19T14:25:54.263Z,1.98
2023-02-19T14:28:42.211Z,1.70
2023-02-19T14:31:31.859Z,2.25
2023-02-19T14:34:19.525Z,2.20
2023-02-19T14:37:06.843Z,2.65
2023-02-19T14:39:52.150Z,2.47
2023-02-19T14:42:34.985Z,6.20
2023-02-19T14:45:20.485Z,8.90
2023-02-19T14:48:03.394Z,8.32
2023-02-19T14:50:49.878Z,5.60
2023-02-19T14:53:38.556Z,5.10
2023-02-19T14:56:26.183Z,6.88
2023-02-19T14:59:22.930Z,6.35
2023-02-19T15:02:16.065Z,6.75
2023-02-19T15:04:59.454Z,3.45
2023-02-19T15:07:43.176Z,3.85
2023-02-19T15:10:28.918Z,3.53
2023-02-19T15:16:00.900Z,2.67
2023-02-19T15:18:46.344Z,3.28
2023-02-19T15:21:32.565Z,4.90
2023-02-19T15:24:18.031Z,5.05
2023-02-19T15:27:00.895Z,4.45
2023-02-19T15:29:48.497Z,4.65
2023-02-19T15:32:32.641Z,4.30
2023-02-19T15:35:20.232Z,4.82
2023-02-19T15:38:03.064Z,5.97
2023-02-19T15:40:47.316Z,4.05
2023-02-19T15:43:35.352Z,4.65
2023-02-19T15:46:23.285Z,3.45
2023-02-19T15:49:10.517Z,4.05
2023-02-19T15:51:58.053Z,5.30
2023-02-19T15:54:50.234Z,4.28
2023-02-19T15:57:37.845Z,3.92
2023-02-19T16:00:25.603Z,5.60
2023-02-19T16:03:18.366Z,5.47
2023-02-19T16:06:02.716Z,6.47
2023-02-19T16:08:46.872Z,6.80
2023-02-19T16:11:35.275Z,5.22
2023-02-19T16:14:23.303Z,5.32
2023-02-19T16:17:14.148Z,6.05
2023-02-19T16:20:00.721Z,5.07
2023-02-19T16:22:43.718Z,5.22
2023-02-19T16:25:30.845Z,5.20
2023-02-19T16:28:15.297Z,5.03
2023-02-19T16:30:59.544Z,4.18
2023-02-19T16:33:43.183Z,5.05
2023-02-19T16:36:37.880Z,6.05
2023-02-19T16:39:22.647Z,4.13
2023-02-19T16:44:58.273Z,8.00
2023-02-19T16:47:45.012Z,7.22
2023-02-19T16:50:27.790Z,4.38
2023-02-19T16:53:20.218Z,5.10
2023-02-19T16:56:03.301Z,4.70
2023-02-19T16:58:46.110Z,4.10
2023-02-19T17:01:29.321Z,5.90
2023-02-19T17:04:15.632Z,3.88
2023-02-19T17:06:58.793Z,3.58
2023-02-19T17:09:43.098Z,2.83
2023-02-19T17:12:25.898Z,2.42
2023-02-19T17:15:09.521Z,2.47
2023-02-19T17:17:52.348Z,1.80
2023-02-19T17:20:36.639Z,3.28
2023-02-19T17:23:19.461Z,5.85
2023-02-19T17:26:03.621Z,16.33
2023-02-19T17:28:46.588Z,4.05
2023-02-19T17:31:30.016Z,7.68
2023-02-19T17:34:12.883Z,10.05
2023-02-19T17:36:55.741Z,11.25
2023-02-19T17:39:38.506Z,38.22
2023-02-19T17:42:23.528Z,27.73
2023-02-19T17:45:06.745Z,23.60
2023-02-19T17:47:49.505Z,14.75
2023-02-19T17:50:33.612Z,15.00
2023-02-19T17:53:16.409Z,13.27
2023-02-19T17:55:59.151Z,12.65
2023-02-19T17:58:43.306Z,14.30
2023-02-19T18:01:26.173Z,15.00
2023-02-19T18:04:09.100Z,21.23
2023-02-19T18:06:53.891Z,20.20
2023-02-19T18:09:36.704Z,19.20
2023-02-19T18:12:19.489Z,30.48
2023-02-19T18:15:03.727Z,48.97
2023-02-19T18:17:46.663Z,33.88
2023-02-19T18:20:31.484Z,24.38
2023-02-19T18:23:14.249Z,18.60
2023-02-19T18:25:57.013Z,25.33
2023-02-19T18:28:41.433Z,55.67
2023-02-19T18:31:25.666Z,19.55
2023-02-19T18:34:17.529Z,67.78
2023-02-19T18:37:00.329Z,29.27
2023-02-19T18:39:43.871Z,16.55
2023-02-19T18:42:27.287Z,15.18
2023-02-19T18:45:10.302Z,13.85
2023-02-19T18:47:54.405Z,10.25
2023-02-19T18:50:37.928Z,41.47
2023-02-19T18:53:20.706Z,21.65
2023-02-19T18:56:05.375Z,14.20
2023-02-19T18:58:50.292Z,10.77
2023-02-19T19:01:33.278Z,11.02
2023-02-19T19:04:17.760Z,9.07
2023-02-19T19:07:00.626Z,10.45
2023-02-19T19:09:43.473Z,10.23
2023-02-19T19:12:26.201Z,9.55
2023-02-19T19:15:09.941Z,8.00
2023-02-19T19:17:52.942Z,7.00
2023-02-19T19:20:37.285Z,7.68
2023-02-19T19:23:20.120Z,6.63
2023-02-19T19:26:05.989Z,7.20
2023-02-19T19:28:48.968Z,7.53
2023-02-19T19:31:36.508Z,6.38
2023-02-19T19:34:19.926Z,4.10
2023-02-19T19:37:04.104Z,5.55
2023-02-19T19:39:46.912Z,8.43
2023-02-19T19:42:29.884Z,7.82
2023-02-19T19:45:13.820Z,9.15
2023-02-19T19:47:56.653Z,9.20
2023-02-19T19:50:39.461Z,9.05
2023-02-19T19:53:24.058Z,8.30
2023-02-19T19:58:50.060Z,7.43
2023-02-19T20:01:32.903Z,7.93
2023-02-19T20:04:15.746Z,6.72
2023-02-19T20:07:00.146Z,6.25
2023-02-19T20:12:29.985Z,5.88
2023-02-19T20:15:13.702Z,6.80
2023-02-19T20:17:56.470Z,4.87
2023-02-19T20:20:39.311Z,10.82
2023-02-19T20:23:22.134Z,7.20
2023-02-19T20:26:06.681Z,7.60
2023-02-19T20:31:32.392Z,9.00
2023-02-19T20:34:15.203Z,8.23
2023-02-19T20:36:59.114Z,7.07
2023-02-19T20:39:41.961Z,6.07
2023-02-19T20:42:26.150Z,9.05
2023-02-19T20:45:09.829Z,7.30
2023-02-19T20:47:52.745Z,10.00
2023-02-19T20:50:35.550Z,7.97
2023-02-19T20:53:18.388Z,11.18
2023-02-19T20:56:01.271Z,9.15
2023-02-19T20:58:45.370Z,8.85
2023-02-19T21:01:28.639Z,7.25
2023-02-19T21:04:12.034Z,8.13
2023-02-19T21:06:54.978Z,8.20
2023-02-19T21:09:37.784Z,9.10
2023-02-19T21:12:21.181Z,7.18
2023-02-19T21:15:05.755Z,5.90
2023-02-19T21:20:31.594Z,7.30
2023-02-19T21:23:14.990Z,6.25
2023-02-19T21:25:58.061Z,5.70
2023-02-19T21:28:41.096Z,7.00
2023-02-19T21:31:25.559Z,7.15
2023-02-19T21:36:52.104Z,6.07
2023-02-19T21:39:34.891Z,8.18
2023-02-19T21:42:17.794Z,12.95
2023-02-19T21:45:00.553Z,9.38
2023-02-19T21:47:45.161Z,7.65
2023-02-19T21:53:10.527Z,7.25
2023-02-19T21:55:58.744Z,9.45
2023-02-19T21:58:41.807Z,7.18
2023-02-19T22:01:27.058Z,9.00
2023-02-19T22:04:14.190Z,8.35
2023-02-19T22:06:57.600Z,5.50
2023-02-19T22:09:40.527Z,5.20
2023-02-19T22:12:23.353Z,5.57
2023-02-19T22:15:06.522Z,6.20
2023-02-19T22:17:49.309Z,5.45
2023-02-19T22:20:34.713Z,5.03
2023-02-19T22:23:17.556Z,7.07
2023-02-19T22:26:00.372Z,5.65
2023-02-19T22:28:43.086Z,7.63
2023-02-19T22:31:27.730Z,9.70
2023-02-19T22:34:10.871Z,6.78
2023-02-19T22:36:55.046Z,7.15
2023-02-19T22:39:38.152Z,5.05
2023-02-19T22:42:20.907Z,7.28
2023-02-19T22:45:03.729Z,6.50
2023-02-19T22:47:47.022Z,9.27
2023-02-19T22:50:29.798Z,8.95
2023-02-19T22:53:13.950Z,8.32
2023-02-19T22:55:56.786Z,9.10
2023-02-19T22:58:40.548Z,5.75
2023-02-19T23:01:24.186Z,5.57
2023-02-19T23:04:07.077Z,6.20
2023-02-19T23:06:50.320Z,5.80
2023-02-19T23:09:34.571Z,5.25
2023-02-19T23:12:17.349Z,9.40
2023-02-19T23:15:00.192Z,8.02
2023-02-19T23:17:43.032Z,6.95
2023-02-19T23:20:26.002Z,4.80
2023-02-19T23:23:08.823Z,6.40
2023-02-19T23:25:52.978Z,7.72
2023-02-19T23:28:35.862Z,6.55
2023-02-19T23:31:19.265Z,5.07
2023-02-19T23:34:02.223Z,5.65
2023-02-19T23:36:47.123Z,5.25
2023-02-19T23:39:30.176Z,5.13
2023-02-19T23:42:16.757Z,7.13
2023-02-19T23:44:59.548Z,3.85
2023-02-19T23:47:42.329Z,4.18
2023-02-19T23:50:25.142Z,5.43
2023-02-19T23:53:08.432Z,7.35
2023-02-19T23:55:51.682Z,4.50
2023-02-19T23:58:35.878Z,3.85
